createdAt,value
2019-02-07T00:02:54.475Z,36.60
2019-02-07T00:06:59.984Z,34.53
2019-02-07T00:11:05.815Z,36.57
2019-02-07T00:15:11.716Z,38.23
2019-02-07T00:19:17.162Z,33.13
2019-02-07T00:23:22.574Z,39.10
2019-02-07T00:27:27.991Z,34.00
2019-02-07T00:31:33.426Z,35.57
2019-02-07T00:35:38.869Z,35.23
2019-02-07T00:39:44.773Z,33.57
2019-02-07T00:43:50.058Z,38.97
2019-02-07T00:47:55.605Z,30.70
2019-02-07T00:52:01.031Z,31.33
2019-02-07T00:56:06.476Z,35.47
2019-02-07T01:00:21.227Z,36.53
2019-02-07T01:04:26.660Z,38.90
2019-02-07T01:08:32.100Z,40.47
2019-02-07T01:12:37.636Z,34.83
2019-02-07T01:16:43.045Z,33.23
2019-02-07T01:20:48.766Z,27.73
2019-02-07T01:24:54.211Z,27.93
2019-02-07T01:28:59.669Z,28.17
2019-02-07T01:33:05.166Z,32.03
2019-02-07T01:37:11.060Z,35.00
2019-02-07T01:41:16.504Z,29.57
2019-02-07T01:45:22.538Z,18.90
2019-02-07T01:49:27.986Z,31.07
2019-02-07T01:53:33.669Z,31.63
2019-02-07T01:57:39.331Z,31.50
2019-02-07T02:01:44.892Z,25.90
2019-02-07T02:05:50.258Z,31.23
2019-02-07T02:09:55.760Z,28.20
2019-02-07T02:14:01.574Z,31.80
2019-02-07T02:18:06.984Z,33.90
2019-02-07T02:22:12.557Z,34.27
2019-02-07T02:26:18.029Z,33.20
2019-02-07T02:30:35.115Z,30.77
2019-02-07T02:34:40.831Z,36.17
2019-02-07T02:38:47.348Z,30.47
2019-02-07T02:42:52.864Z,32.93
2019-02-07T02:46:58.351Z,34.40
2019-02-07T02:51:04.402Z,31.40
2019-02-07T02:55:10.902Z,28.13
2019-02-07T02:59:16.355Z,30.83
2019-02-07T03:03:47.758Z,34.03
2019-02-07T03:08:24.005Z,28.50
2019-02-07T03:12:47.299Z,30.10
2019-02-07T03:17:29.895Z,33.13
2019-02-07T03:21:48.071Z,33.03
2019-02-07T03:26:21.475Z,28.37
2019-02-07T03:30:38.777Z,31.43
2019-02-07T03:34:50.693Z,34.90
2019-02-07T03:39:14.135Z,27.77
2019-02-07T03:43:53.883Z,34.30
2019-02-07T03:48:21.033Z,30.53
2019-02-07T03:52:33.584Z,30.77
2019-02-07T03:57:10.052Z,35.73
2019-02-07T04:01:37.979Z,32.43
2019-02-07T04:05:52.350Z,35.33
2019-02-07T04:10:14.263Z,29.80
2019-02-07T04:14:30.895Z,36.13
2019-02-07T04:18:56.650Z,34.40
2019-02-07T04:23:13.070Z,37.20
2019-02-07T04:27:43.388Z,34.33
2019-02-07T04:32:20.361Z,36.10
2019-02-07T04:36:50.518Z,36.43
2019-02-07T04:41:15.110Z,35.73
2019-02-07T04:45:32.108Z,33.70
2019-02-07T04:49:54.256Z,28.67
2019-02-07T04:54:21.424Z,28.80
2019-02-07T04:58:37.225Z,28.47
2019-02-07T05:02:52.452Z,32.20
2019-02-07T05:07:12.203Z,32.10
2019-02-07T05:11:32.897Z,31.33
2019-02-07T05:16:07.343Z,31.30
2019-02-07T05:20:24.563Z,24.73
2019-02-07T05:24:39.199Z,29.20
2019-02-07T05:29:02.718Z,27.40
2019-02-07T05:33:26.142Z,26.03
2019-02-07T05:37:49.720Z,25.53
2019-02-07T05:42:13.832Z,30.77
2019-02-07T05:46:38.159Z,36.70
2019-02-07T05:51:11.501Z,32.47
2019-02-07T05:55:35.276Z,28.43
2019-02-07T05:59:54.530Z,30.87
2019-02-07T06:04:19.126Z,25.77
2019-02-07T06:08:52.535Z,28.07
2019-02-07T06:13:15.667Z,26.77
2019-02-07T06:17:40.420Z,30.00
2019-02-07T06:21:56.574Z,28.70
2019-02-07T06:26:11.070Z,26.53
2019-02-07T06:30:35.664Z,27.77
2019-02-07T06:35:00.324Z,28.93
2019-02-07T06:39:28.962Z,35.13
2019-02-07T06:44:03.065Z,28.00
2019-02-07T06:48:30.403Z,27.60
2019-02-07T06:52:53.672Z,27.57
2019-02-07T06:57:17.535Z,25.00
2019-02-07T07:01:57.218Z,32.47
2019-02-07T07:06:36.001Z,28.07
2019-02-07T07:10:57.680Z,26.83
2019-02-07T07:15:20.760Z,23.77
2019-02-07T07:19:50.952Z,25.10
2019-02-07T07:24:27.858Z,27.53
2019-02-07T07:28:52.123Z,26.80
2019-02-07T07:33:06.491Z,31.40
2019-02-07T07:37:29.776Z,28.23
2019-02-07T07:41:53.131Z,28.73
2019-02-07T07:46:17.389Z,29.87
2019-02-07T07:50:40.825Z,29.33
2019-02-07T07:55:06.546Z,39.67
2019-02-07T07:59:23.069Z,33.47
2019-02-07T08:03:44.210Z,33.77
2019-02-07T08:08:17.623Z,31.97
2019-02-07T08:12:40.914Z,33.30
2019-02-07T08:17:04.201Z,26.73
2019-02-07T08:21:27.747Z,31.07
2019-02-07T08:25:51.016Z,25.40
2019-02-07T08:30:36.273Z,26.33
2019-02-07T08:34:56.628Z,7.80
2019-02-07T08:39:19.816Z,5.47
2019-02-07T08:43:39.857Z,5.87
2019-02-07T08:48:16.426Z,5.87
2019-02-07T08:52:35.445Z,2.27
2019-02-07T08:56:59.865Z,5.30
2019-02-07T09:01:23.611Z,5.87
2019-02-07T09:05:51.022Z,7.10
2019-02-07T09:10:19.856Z,5.67
2019-02-07T09:14:44.948Z,4.87
2019-02-07T09:18:59.233Z,17.07
2019-02-07T09:23:16.169Z,25.90
2019-02-07T09:27:43.307Z,20.60
2019-02-07T09:32:13.747Z,18.63
2019-02-07T09:36:44.029Z,14.30
2019-02-07T09:41:07.332Z,23.37
2019-02-07T09:45:49.506Z,19.93
2019-02-07T09:50:25.920Z,20.27
2019-02-07T09:55:05.606Z,21.70
2019-02-07T09:59:29.953Z,26.90
2019-02-07T10:03:47.956Z,21.50
2019-02-07T10:08:01.527Z,20.17
2019-02-07T10:12:22.804Z,24.73
2019-02-07T10:16:56.309Z,24.73
2019-02-07T10:21:29.675Z,21.47
2019-02-07T10:25:52.711Z,23.93
2019-02-07T10:30:16.196Z,28.37
2019-02-07T10:34:43.738Z,30.03
2019-02-07T10:39:03.899Z,23.17
2019-02-07T10:43:27.248Z,22.93
2019-02-07T10:47:57.629Z,21.40
2019-02-07T10:52:21.139Z,27.47
2019-02-07T10:56:52.821Z,19.17
2019-02-07T11:01:17.101Z,23.70
2019-02-07T11:05:33.311Z,20.60
2019-02-07T11:10:06.627Z,11.97
2019-02-07T11:14:30.949Z,22.50
2019-02-07T11:18:57.992Z,21.03
2019-02-07T11:23:19.455Z,17.07
2019-02-07T11:27:49.978Z,18.93
2019-02-07T11:32:13.447Z,21.83
2019-02-07T11:36:36.381Z,20.27
2019-02-07T11:40:59.463Z,19.63
2019-02-07T11:45:24.293Z,14.63
2019-02-07T11:49:46.308Z,11.47
2019-02-07T11:54:09.700Z,23.53
2019-02-07T11:58:32.863Z,14.80
2019-02-07T12:02:57.585Z,17.67
2019-02-07T12:07:18.494Z,14.23
2019-02-07T12:11:43.248Z,27.43
2019-02-07T12:15:59.148Z,17.53
2019-02-07T12:20:18.230Z,17.90
2019-02-07T12:24:42.079Z,17.57
2019-02-07T12:29:06.488Z,16.97
2019-02-07T12:33:30.819Z,16.17
2019-02-07T12:37:54.254Z,17.23
2019-02-07T12:42:23.223Z,13.73
2019-02-07T12:46:50.683Z,19.57
2019-02-07T12:51:13.718Z,18.67
2019-02-07T12:55:37.105Z,12.83
2019-02-07T13:00:11.152Z,18.03
2019-02-07T13:04:29.186Z,11.03
2019-02-07T13:08:45.075Z,11.47
2019-02-07T13:13:09.991Z,14.17
2019-02-07T13:17:37.442Z,11.70
2019-02-07T13:21:53.621Z,15.30
2019-02-07T13:26:05.075Z,12.53
2019-02-07T13:30:31.725Z,13.10
2019-02-07T13:34:47.320Z,18.43
2019-02-07T13:39:17.754Z,10.77
2019-02-07T13:43:42.362Z,15.23
2019-02-07T13:48:05.297Z,10.77
2019-02-07T13:52:42.074Z,12.93
2019-02-07T13:57:09.271Z,16.47
2019-02-07T14:01:30.072Z,12.07
2019-02-07T14:06:00.470Z,13.83
2019-02-07T14:10:27.083Z,14.63
2019-02-07T14:15:00.785Z,14.17
2019-02-07T14:19:37.650Z,7.67
2019-02-07T14:23:53.392Z,9.00
2019-02-07T14:28:16.614Z,13.13
2019-02-07T14:32:33.706Z,12.20
2019-02-07T14:36:54.261Z,10.63
2019-02-07T14:41:30.802Z,11.13
2019-02-07T14:45:54.883Z,10.37
2019-02-07T14:50:00.315Z,6.17
2019-02-07T14:54:05.954Z,9.13
2019-02-07T14:58:11.511Z,7.73
2019-02-07T15:02:17.200Z,10.80
2019-02-07T15:06:22.657Z,6.03
2019-02-07T15:10:28.076Z,12.00
2019-02-07T15:14:33.523Z,12.07
2019-02-07T15:18:39.548Z,10.60
2019-02-07T15:22:44.998Z,9.17
2019-02-07T15:26:50.917Z,12.50
2019-02-07T15:30:56.318Z,14.73
2019-02-07T15:35:01.749Z,11.47
2019-02-07T15:39:11.591Z,9.53
2019-02-07T15:43:18.157Z,10.53
2019-02-07T15:47:23.621Z,9.33
2019-02-07T15:51:29.487Z,11.33
2019-02-07T15:55:34.985Z,11.03
2019-02-07T15:59:59.495Z,8.00
2019-02-07T16:04:12.550Z,8.83
2019-02-07T16:08:18.261Z,9.20
2019-02-07T16:12:23.988Z,10.10
2019-02-07T16:16:29.426Z,12.07
2019-02-07T16:20:35.123Z,12.63
2019-02-07T16:24:40.526Z,8.87
2019-02-07T16:28:45.930Z,8.50
2019-02-07T16:32:51.356Z,7.27
2019-02-07T16:36:57.142Z,9.70
2019-02-07T16:41:02.877Z,8.63
2019-02-07T16:45:12.392Z,10.60
2019-02-07T16:49:18.563Z,10.27
2019-02-07T16:53:24.055Z,7.43
2019-02-07T16:57:29.738Z,12.33
2019-02-07T17:01:35.249Z,14.60
2019-02-07T17:05:41.023Z,12.77
2019-02-07T17:09:46.491Z,11.57
2019-02-07T17:13:51.902Z,9.23
2019-02-07T17:17:57.354Z,12.13
2019-02-07T17:22:03.026Z,12.17
2019-02-07T17:26:08.589Z,9.87
2019-02-07T17:30:16.417Z,7.73
2019-02-07T17:34:21.839Z,6.60
2019-02-07T17:38:27.606Z,9.90
2019-02-07T17:42:33.335Z,8.67
2019-02-07T17:46:38.837Z,4.23
2019-02-07T17:50:44.516Z,10.90
2019-02-07T17:54:50.324Z,7.73
2019-02-07T17:58:55.733Z,10.90
2019-02-07T18:03:01.224Z,11.70
2019-02-07T18:07:06.792Z,11.67
2019-02-07T18:11:12.315Z,12.33
2019-02-07T18:15:17.777Z,11.70
2019-02-07T18:19:23.775Z,8.33
2019-02-07T18:23:29.200Z,10.57
2019-02-07T18:27:34.649Z,14.87
2019-02-07T18:31:40.144Z,12.67
2019-02-07T18:35:45.579Z,10.40
2019-02-07T18:39:51.000Z,11.87
2019-02-07T18:43:56.480Z,3.53
2019-02-07T18:48:01.835Z,8.87
2019-02-07T18:52:07.311Z,10.50
2019-02-07T18:56:13.110Z,7.60
2019-02-07T19:00:22.700Z,9.93
2019-02-07T19:04:28.229Z,8.57
2019-02-07T19:08:33.669Z,8.57
2019-02-07T19:12:39.243Z,4.60
2019-02-07T19:16:44.685Z,7.20
2019-02-07T19:20:50.089Z,7.87
2019-02-07T19:24:57.869Z,10.10
2019-02-07T19:29:03.365Z,4.73
2019-02-07T19:33:08.820Z,8.30
2019-02-07T19:37:14.223Z,8.23
2019-02-07T19:41:19.800Z,9.67
2019-02-07T19:45:25.283Z,6.03
2019-02-07T19:49:30.729Z,9.33
2019-02-07T19:53:36.106Z,5.57
2019-02-07T19:57:41.653Z,7.57
2019-02-07T20:01:47.519Z,4.67
2019-02-07T20:05:53.355Z,9.90
2019-02-07T20:09:58.833Z,11.13
2019-02-07T20:14:04.186Z,7.93
2019-02-07T20:18:11.633Z,9.00
2019-02-07T20:22:20.356Z,10.17
2019-02-07T20:26:24.563Z,13.27
2019-02-07T20:30:39.137Z,9.90
2019-02-07T20:34:44.491Z,9.80
2019-02-07T20:38:52.124Z,9.93
2019-02-07T20:42:57.943Z,9.37
2019-02-07T20:47:03.303Z,7.13
2019-02-07T20:51:08.912Z,6.40
2019-02-07T20:55:15.139Z,6.47
2019-02-07T20:59:20.680Z,9.60
2019-02-07T21:03:26.214Z,5.80
2019-02-07T21:07:31.633Z,7.90
2019-02-07T21:11:37.454Z,10.83
2019-02-07T21:15:42.826Z,11.27
2019-02-07T21:19:48.841Z,7.57
2019-02-07T21:23:54.475Z,3.77
2019-02-07T21:28:00.309Z,15.00
2019-02-07T21:32:06.397Z,8.70
2019-02-07T21:36:11.823Z,6.70
2019-02-07T21:40:21.248Z,8.73
2019-02-07T21:44:26.691Z,8.23
2019-02-07T21:48:32.135Z,5.30
2019-02-07T21:52:41.907Z,10.07
2019-02-07T21:56:44.706Z,9.67
2019-02-07T22:00:50.315Z,8.27
2019-02-07T22:04:55.702Z,8.40
2019-02-07T22:09:01.919Z,9.13
2019-02-07T22:13:08.456Z,5.87
2019-02-07T22:17:13.802Z,10.00
2019-02-07T22:21:19.595Z,9.27
2019-02-07T22:25:25.702Z,11.20
2019-02-07T22:29:31.128Z,7.77
2019-02-07T22:33:36.540Z,5.40
2019-02-07T22:37:41.975Z,10.57
2019-02-07T22:41:47.405Z,7.93
2019-02-07T22:45:53.210Z,8.63
2019-02-07T22:49:58.671Z,6.73
2019-02-07T22:54:04.491Z,11.17
2019-02-07T22:58:10.511Z,9.70
2019-02-07T23:02:16.242Z,9.20
2019-02-07T23:06:21.742Z,5.77
2019-02-07T23:10:27.178Z,11.03
2019-02-07T23:14:32.604Z,8.57
2019-02-07T23:18:39.161Z,13.00
2019-02-07T23:22:44.963Z,7.50
2019-02-07T23:26:51.169Z,7.53
2019-02-07T23:30:56.603Z,5.77
2019-02-07T23:35:02.045Z,6.87
2019-02-07T23:39:11.569Z,5.90
2019-02-07T23:43:16.975Z,4.43
2019-02-07T23:47:22.545Z,8.63
2019-02-07T23:51:28.354Z,9.17
2019-02-07T23:55:33.813Z,7.07
2019-02-07T23:59:39.151Z,6.37
